createdAt,value
2018-09-08T00:02:11.413Z,99034.91
2018-09-08T00:04:39.650Z,99035.96
2018-09-08T00:07:13.217Z,99031.26
2018-09-08T00:09:41.473Z,99038.84
2018-09-08T00:12:09.778Z,99037.22
2018-09-08T00:14:37.197Z,99036.88
2018-09-08T00:17:10.702Z,99039.34
2018-09-08T00:19:44.365Z,99049.23
2018-09-08T00:22:18.065Z,99052.05
2018-09-08T00:24:51.653Z,99059.48
2018-09-08T00:27:27.313Z,99057.13
2018-09-08T00:29:55.629Z,99056.77
2018-09-08T00:32:23.963Z,99050.66
2018-09-08T00:34:52.311Z,99063.44
2018-09-08T00:37:20.749Z,99061.48
2018-09-08T00:39:50.915Z,99067.12
2018-09-08T00:42:19.380Z,99069.93
2018-09-08T00:44:47.756Z,99074.06
2018-09-08T00:47:16.250Z,99068.95
2018-09-08T00:49:44.561Z,99070.67
2018-09-08T00:52:12.776Z,99077.42
2018-09-08T00:54:41.071Z,99071.70
2018-09-08T00:57:10.360Z,99073.33
2018-09-08T00:59:38.612Z,99073.95
2018-09-08T01:02:06.884Z,99071.37
2018-09-08T01:04:37.286Z,99070.55
2018-09-08T01:07:09.502Z,99074.62
2018-09-08T01:09:37.856Z,99070.79
2018-09-08T01:12:06.227Z,99067.28
2018-09-08T01:14:34.514Z,99076.25
2018-09-08T01:17:02.751Z,99077.18
2018-09-08T01:19:31.024Z,99072.67
2018-09-08T01:22:05.795Z,99078.40
2018-09-08T01:24:34.075Z,99077.77
2018-09-08T01:27:02.352Z,99090.91
2018-09-08T01:29:30.662Z,99079.27
2018-09-08T01:31:58.948Z,99079.88
2018-09-08T01:34:27.209Z,99078.97
2018-09-08T01:36:55.526Z,99074.03
2018-09-08T01:39:23.833Z,99084.87
2018-09-08T01:41:52.276Z,99087.86
2018-09-08T01:44:20.566Z,99086.76
2018-09-08T01:46:48.822Z,99086.92
2018-09-08T01:49:17.072Z,99087.88
2018-09-08T01:51:45.383Z,99089.09
2018-09-08T01:54:13.620Z,99095.38
2018-09-08T01:56:41.892Z,99085.81
2018-09-08T01:59:10.150Z,99087.88
2018-09-08T02:01:38.425Z,99095.22
2018-09-08T02:04:06.693Z,99088.19
2018-09-08T02:06:35.029Z,99086.30
2018-09-08T02:09:03.352Z,99088.38
2018-09-08T02:11:31.689Z,99085.83
2018-09-08T02:13:59.922Z,99085.81
2018-09-08T02:16:28.232Z,99090.95
2018-09-08T02:18:56.552Z,99087.16
2018-09-08T02:21:24.936Z,99086.20
2018-09-08T02:23:53.291Z,99080.64
2018-09-08T02:26:21.568Z,99082.33
2018-09-08T02:28:49.836Z,99089.11
2018-09-08T02:31:18.125Z,99086.17
2018-09-08T02:33:46.413Z,99084.84
2018-09-08T02:36:14.852Z,99084.22
2018-09-08T02:38:43.156Z,99089.93
2018-09-08T02:41:11.452Z,99091.88
2018-09-08T02:43:39.718Z,99087.77
2018-09-08T02:46:08.044Z,99081.92
2018-09-08T02:48:36.281Z,99086.92
2018-09-08T02:51:03.490Z,99079.17
2018-09-08T02:53:30.682Z,99081.70
2018-09-08T02:55:57.920Z,99078.95
2018-09-08T02:58:25.095Z,99076.16
2018-09-08T03:00:52.266Z,99076.97
2018-09-08T03:03:19.469Z,99079.27
2018-09-08T03:05:46.665Z,99081.70
2018-09-08T03:08:13.852Z,99084.00
2018-09-08T03:10:41.174Z,99088.52
2018-09-08T03:13:08.354Z,99089.67
2018-09-08T03:15:35.529Z,99087.47
2018-09-08T03:18:02.747Z,99083.20
2018-09-08T03:20:29.898Z,99077.94
2018-09-08T03:22:57.121Z,99086.45
2018-09-08T03:25:24.299Z,99084.79
2018-09-08T03:27:51.515Z,99096.38
2018-09-08T03:30:35.670Z,99087.92
2018-09-08T03:33:02.954Z,99087.37
2018-09-08T03:35:30.202Z,99088.95
2018-09-08T03:37:57.397Z,99089.51
2018-09-08T03:40:24.630Z,99079.84
2018-09-08T03:42:51.818Z,99067.41
2018-09-08T03:45:19.039Z,99076.86
2018-09-08T03:47:46.396Z,99073.64
2018-09-08T03:50:13.583Z,99086.28
2018-09-08T03:52:40.862Z,99077.22
2018-09-08T03:55:08.192Z,99075.79
2018-09-08T03:57:35.510Z,99087.11
2018-09-08T04:00:02.700Z,99087.69
2018-09-08T04:02:30.743Z,99083.84
2018-09-08T04:04:59.065Z,99094.14
2018-09-08T04:07:27.383Z,99097.67
2018-09-08T04:09:55.837Z,99098.08
2018-09-08T04:12:24.264Z,99107.59
2018-09-08T04:14:52.606Z,99104.80
2018-09-08T04:17:20.970Z,99104.44
2018-09-08T04:19:49.302Z,99104.44
2018-09-08T04:22:21.759Z,99105.70
2018-09-08T04:24:50.104Z,99108.98
2018-09-08T04:27:18.407Z,99113.19
2018-09-08T04:29:46.758Z,99114.46
2018-09-08T04:32:15.122Z,99115.80
2018-09-08T04:34:43.423Z,99119.34
2018-09-08T04:37:11.806Z,99112.93
2018-09-08T04:39:40.146Z,99120.21
2018-09-08T04:42:08.434Z,99127.36
2018-09-08T04:44:36.779Z,99133.19
2018-09-08T04:47:05.207Z,99138.14
2018-09-08T04:49:33.537Z,99130.83
2018-09-08T04:52:02.040Z,99133.16
2018-09-08T04:54:30.402Z,99137.22
2018-09-08T04:56:59.506Z,99135.45
2018-09-08T04:59:27.935Z,99133.89
2018-09-08T05:01:56.293Z,99138.74
2018-09-08T05:04:24.669Z,99145.64
2018-09-08T05:06:53.065Z,99131.87
2018-09-08T05:09:21.476Z,99135.19
2018-09-08T05:11:49.785Z,99139.46
2018-09-08T05:14:18.180Z,99139.81
2018-09-08T05:16:46.504Z,99130.84
2018-09-08T05:19:14.846Z,99141.00
2018-09-08T05:21:43.182Z,99147.15
2018-09-08T05:24:11.519Z,99139.75
2018-09-08T05:26:39.921Z,99136.53
2018-09-08T05:29:08.278Z,99154.09
2018-09-08T05:31:36.785Z,99143.19
2018-09-08T05:34:05.168Z,99150.92
2018-09-08T05:36:33.505Z,99151.55
2018-09-08T05:39:01.808Z,99155.94
2018-09-08T05:41:30.146Z,99157.23
2018-09-08T05:43:58.502Z,99159.31
2018-09-08T05:46:26.850Z,99161.32
2018-09-08T05:48:55.272Z,99169.48
2018-09-08T05:51:23.535Z,99165.33
2018-09-08T05:53:51.849Z,99178.78
2018-09-08T05:56:20.182Z,99182.48
2018-09-08T05:58:48.543Z,99175.66
2018-09-08T06:01:17.168Z,99171.28
2018-09-08T06:03:45.506Z,99173.23
2018-09-08T06:06:13.860Z,99171.71
2018-09-08T06:08:42.225Z,99173.27
2018-09-08T06:11:10.547Z,99171.61
2018-09-08T06:13:38.881Z,99173.43
2018-09-08T06:16:07.189Z,99188.92
2018-09-08T06:18:35.490Z,99192.47
2018-09-08T06:21:03.791Z,99190.36
2018-09-08T06:23:32.138Z,99192.82
2018-09-08T06:26:00.598Z,99187.47
2018-09-08T06:28:29.005Z,99186.41
2018-09-08T06:30:57.326Z,99190.70
2018-09-08T06:33:25.717Z,99188.02
2018-09-08T06:35:53.997Z,99185.83
2018-09-08T06:38:22.495Z,99183.28
2018-09-08T06:40:52.681Z,99177.30
2018-09-08T06:43:21.567Z,99178.77
2018-09-08T06:45:50.671Z,99181.94
2018-09-08T06:48:19.467Z,99188.14
2018-09-08T06:50:47.886Z,99189.69
2018-09-08T06:53:16.251Z,99198.77
2018-09-08T06:55:44.794Z,99196.94
2018-09-08T06:58:13.183Z,99200.67
2018-09-08T07:00:48.505Z,99206.31
2018-09-08T07:03:16.982Z,99209.75
2018-09-08T07:05:45.702Z,99211.09
2018-09-08T07:08:14.271Z,99208.61
2018-09-08T07:10:43.187Z,99210.15
2018-09-08T07:13:11.838Z,99209.36
2018-09-08T07:15:40.779Z,99204.59
2018-09-08T07:18:09.174Z,99204.62
2018-09-08T07:20:38.098Z,99199.61
2018-09-08T07:23:06.578Z,99195.66
2018-09-08T07:25:35.092Z,99198.55
2018-09-08T07:28:03.657Z,99205.34
2018-09-08T07:30:32.238Z,99199.18
2018-09-08T07:33:00.591Z,99205.05
2018-09-08T07:35:29.182Z,99203.41
2018-09-08T07:37:57.854Z,99208.09
2018-09-08T07:40:26.382Z,99213.95
2018-09-08T07:42:55.353Z,99215.57
2018-09-08T07:45:23.919Z,99211.50
2018-09-08T07:47:52.453Z,99210.62
2018-09-08T07:50:21.072Z,99214.69
2018-09-08T07:52:49.717Z,99219.09
2018-09-08T07:55:18.398Z,99212.88
2018-09-08T07:57:47.161Z,99214.53
2018-09-08T08:00:16.503Z,99213.42
2018-09-08T08:02:45.653Z,99219.70
2018-09-08T08:05:14.356Z,99224.27
2018-09-08T08:07:43.754Z,99223.66
2018-09-08T08:10:12.233Z,99227.12
2018-09-08T08:12:41.327Z,99224.36
2018-09-08T08:15:10.018Z,99227.82
2018-09-08T08:17:38.860Z,99229.16
2018-09-08T08:20:07.773Z,99229.98
2018-09-08T08:24:00.506Z,99235.88
2018-09-08T08:26:29.178Z,99234.83
2018-09-08T08:28:57.846Z,99236.37
2018-09-08T08:31:26.617Z,99242.38
2018-09-08T08:33:55.280Z,99231.73
2018-09-08T08:36:23.997Z,99241.43
2018-09-08T08:38:53.772Z,99239.37
2018-09-08T08:41:22.715Z,99241.33
2018-09-08T08:43:51.086Z,99235.77
2018-09-08T08:46:20.564Z,99233.27
2018-09-08T08:48:49.208Z,99237.52
2018-09-08T08:51:28.978Z,99236.31
2018-09-08T08:54:08.633Z,99232.03
2018-09-08T08:56:37.088Z,99233.80
2018-09-08T08:59:06.005Z,99229.70
2018-09-08T09:01:34.360Z,99232.73
2018-09-08T09:04:02.775Z,99230.06
2018-09-08T09:06:32.440Z,99235.45
2018-09-08T09:09:00.762Z,99233.70
2018-09-08T09:11:29.263Z,99231.58
2018-09-08T09:13:57.743Z,99228.78
2018-09-08T09:16:26.150Z,99230.59
2018-09-08T09:19:05.862Z,99224.59
2018-09-08T09:21:45.904Z,99232.83
2018-09-08T09:24:26.267Z,99229.03
2018-09-08T09:26:54.675Z,99229.12
2018-09-08T09:29:23.224Z,99226.42
2018-09-08T09:31:51.576Z,99224.06
2018-09-08T09:34:20.213Z,99221.88
2018-09-08T09:36:48.906Z,99222.45
2018-09-08T09:39:17.323Z,99228.18
2018-09-08T09:41:45.964Z,99227.48
2018-09-08T09:44:15.195Z,99224.14
2018-09-08T09:46:43.734Z,99226.13
2018-09-08T09:49:12.030Z,99228.15
2018-09-08T09:51:40.664Z,99223.80
2018-09-08T09:54:08.973Z,99229.22
2018-09-08T09:56:37.473Z,99225.83
2018-09-08T09:59:05.980Z,99221.80
2018-09-08T10:01:39.410Z,99227.02
2018-09-08T10:04:07.810Z,99228.22
2018-09-08T10:06:36.461Z,99227.53
2018-09-08T10:09:06.787Z,99228.20
2018-09-08T10:11:35.339Z,99217.41
2018-09-08T10:14:03.631Z,99218.26
2018-09-08T10:16:31.993Z,99219.45
2018-09-08T10:19:00.439Z,99219.45
2018-09-08T10:21:29.314Z,99220.11
2018-09-08T10:24:05.149Z,99222.65
2018-09-08T10:26:25.975Z,99216.41
2018-09-08T10:28:54.374Z,99221.45
2018-09-08T10:31:22.836Z,99224.53
2018-09-08T10:33:51.148Z,99219.12
2018-09-08T10:36:19.598Z,99217.25
2018-09-08T10:38:48.409Z,99220.27
2018-09-08T10:41:18.260Z,99222.46
2018-09-08T10:43:47.208Z,99217.73
2018-09-08T10:46:15.530Z,99215.20
2018-09-08T10:48:43.838Z,99215.00
2018-09-08T10:52:25.616Z,99209.52
2018-09-08T10:54:55.194Z,99214.45
2018-09-08T10:57:23.678Z,99214.84
2018-09-08T10:59:52.031Z,99216.41
2018-09-08T11:02:21.321Z,99216.16
2018-09-08T11:04:49.314Z,99212.22
2018-09-08T11:07:17.690Z,99205.65
2018-09-08T11:09:46.074Z,99209.66
2018-09-08T11:12:14.407Z,99206.67
2018-09-08T11:14:42.973Z,99207.00
2018-09-08T11:17:11.299Z,99211.66
2018-09-08T11:19:39.855Z,99203.20
2018-09-08T11:22:08.367Z,99215.27
2018-09-08T11:24:38.246Z,99214.95
2018-09-08T11:27:08.028Z,99207.86
2018-09-08T11:29:36.431Z,99214.22
2018-09-08T11:32:04.756Z,99204.31
2018-09-08T11:34:33.185Z,99204.28
2018-09-08T11:37:01.722Z,99200.27
2018-09-08T11:39:30.362Z,99198.14
2018-09-08T11:41:58.707Z,99197.78
2018-09-08T11:44:27.305Z,99202.05
2018-09-08T11:46:55.593Z,99201.59
2018-09-08T11:49:23.913Z,99202.95
2018-09-08T11:51:52.479Z,99198.50
2018-09-08T11:54:20.821Z,99196.72
2018-09-08T11:56:49.217Z,99201.28
2018-09-08T11:59:17.606Z,99198.53
2018-09-08T12:01:45.917Z,99199.84
2018-09-08T12:04:14.627Z,99197.27
2018-09-08T12:06:43.129Z,99206.37
2018-09-08T12:09:12.586Z,99208.92
2018-09-08T12:11:40.929Z,99202.19
2018-09-08T12:14:10.365Z,99201.06
2018-09-08T12:16:38.971Z,99203.20
2018-09-08T12:19:07.367Z,99208.00
2018-09-08T12:21:35.815Z,99204.00
2018-09-08T12:24:05.258Z,99204.80
2018-09-08T12:26:33.690Z,99197.61
2018-09-08T12:29:02.480Z,99201.61
2018-09-08T12:31:31.034Z,99204.28
2018-09-08T12:34:00.330Z,99201.83
2018-09-08T12:36:29.774Z,99194.30
2018-09-08T12:38:58.665Z,99201.42
2018-09-08T12:41:27.238Z,99193.91
2018-09-08T12:43:55.819Z,99195.33
2018-09-08T12:46:26.600Z,99202.08
2018-09-08T12:49:04.068Z,99197.02
2018-09-08T12:51:32.554Z,99194.45
2018-09-08T12:54:01.368Z,99190.85
2018-09-08T12:56:30.719Z,99197.05
2018-09-08T12:59:00.363Z,99183.23
2018-09-08T13:01:28.887Z,99179.26
2018-09-08T13:03:57.928Z,99179.47
2018-09-08T13:06:27.450Z,99182.31
2018-09-08T13:08:55.855Z,99183.58
2018-09-08T13:11:24.287Z,99178.16
2018-09-08T13:13:52.870Z,99172.33
2018-09-08T13:16:21.406Z,99177.87
2018-09-08T13:18:50.382Z,99174.76
2018-09-08T13:21:18.923Z,99160.13
2018-09-08T13:23:50.310Z,99158.12
2018-09-08T13:26:18.758Z,99159.28
2018-09-08T13:28:47.474Z,99157.55
2018-09-08T13:31:15.874Z,99157.82
2018-09-08T13:33:44.494Z,99153.42
2018-09-08T13:36:13.174Z,99158.39
2018-09-08T13:38:41.461Z,99153.63
2018-09-08T13:41:09.791Z,99158.33
2018-09-08T13:43:38.118Z,99162.30
2018-09-08T13:46:06.427Z,99155.03
2018-09-08T13:48:34.859Z,99156.01
2018-09-08T13:51:03.240Z,99150.08
2018-09-08T13:53:31.998Z,99148.80
2018-09-08T13:56:00.364Z,99140.66
2018-09-08T13:58:28.686Z,99148.29
2018-09-08T14:00:56.976Z,99138.72
2018-09-08T14:03:25.372Z,99135.63
2018-09-08T14:05:53.794Z,99140.87
2018-09-08T14:08:22.100Z,99145.59
2018-09-08T14:10:50.527Z,99142.47
2018-09-08T14:13:19.316Z,99146.67
2018-09-08T14:15:47.762Z,99149.50
2018-09-08T14:18:16.138Z,99141.00
2018-09-08T14:20:44.464Z,99140.38
2018-09-08T14:23:13.003Z,99144.78
2018-09-08T14:25:41.733Z,99135.67
2018-09-08T14:28:10.082Z,99138.41
2018-09-08T14:30:39.443Z,99134.65
2018-09-08T14:33:07.748Z,99125.16
2018-09-08T14:35:37.018Z,99129.12
2018-09-08T14:38:05.491Z,99120.67
2018-09-08T14:40:33.795Z,99127.82
2018-09-08T14:43:02.119Z,99121.22
2018-09-08T14:45:30.478Z,99123.25
2018-09-08T14:47:58.755Z,99120.33
2018-09-08T14:50:27.094Z,99122.91
2018-09-08T14:52:55.477Z,99126.77
2018-09-08T14:55:24.072Z,99126.36
2018-09-08T14:57:52.691Z,99120.73
2018-09-08T15:00:21.071Z,99111.41
2018-09-08T15:02:49.675Z,99122.05
2018-09-08T15:05:17.983Z,99119.64
2018-09-08T15:07:46.250Z,99114.95
2018-09-08T15:10:14.598Z,99114.93
2018-09-08T15:12:44.264Z,99109.22
2018-09-08T15:15:12.589Z,99115.64
2018-09-08T15:17:41.896Z,99116.73
2018-09-08T15:20:10.284Z,99108.05
2018-09-08T15:22:38.679Z,99112.80
2018-09-08T15:25:07.088Z,99110.00
2018-09-08T15:27:35.536Z,99107.67
2018-09-08T15:30:03.858Z,99110.28
2018-09-08T15:32:32.187Z,99108.60
2018-09-08T15:35:00.477Z,99109.70
2018-09-08T15:37:28.988Z,99103.13
2018-09-08T15:39:57.323Z,99110.83
2018-09-08T15:42:25.634Z,99109.90
2018-09-08T15:44:53.921Z,99108.69
2018-09-08T15:47:22.402Z,99112.11
2018-09-08T15:49:50.893Z,99109.02
2018-09-08T15:52:19.202Z,99112.38
2018-09-08T15:54:47.641Z,99115.25
2018-09-08T15:57:16.106Z,99117.78
2018-09-08T15:59:44.449Z,99118.38
2018-09-08T16:02:12.960Z,99109.08
2018-09-08T16:04:41.244Z,99115.80
2018-09-08T16:07:09.561Z,99108.05
2018-09-08T16:09:37.835Z,99104.48
2018-09-08T16:12:06.177Z,99104.00
2018-09-08T16:14:34.511Z,99112.09
2018-09-08T16:17:03.053Z,99117.02
2018-09-08T16:19:31.742Z,99106.76
2018-09-08T16:22:00.213Z,99109.79
2018-09-08T16:24:28.563Z,99110.11
2018-09-08T16:26:57.950Z,99115.59
2018-09-08T16:29:26.283Z,99112.74
2018-09-08T16:31:55.011Z,99118.00
2018-09-08T16:34:23.295Z,99123.75
2018-09-08T16:36:51.856Z,99125.64
2018-09-08T16:39:20.208Z,99118.38
2018-09-08T16:41:48.583Z,99126.84
2018-09-08T16:44:16.930Z,99120.73
2018-09-08T16:46:45.242Z,99122.35
2018-09-08T16:49:13.626Z,99122.55
2018-09-08T16:51:41.990Z,99126.73
2018-09-08T16:54:10.422Z,99119.37
2018-09-08T16:56:38.837Z,99118.55
2018-09-08T16:59:07.324Z,99124.11
2018-09-08T17:01:35.638Z,99128.44
2018-09-08T17:04:04.038Z,99127.28
2018-09-08T17:06:32.381Z,99113.57
2018-09-08T17:09:00.738Z,99121.58
2018-09-08T17:11:29.221Z,99120.61
2018-09-08T17:13:57.733Z,99124.05
2018-09-08T17:16:26.340Z,99127.02
2018-09-08T17:18:54.791Z,99129.66
2018-09-08T17:21:23.320Z,99125.97
2018-09-08T17:23:52.116Z,99119.25
2018-09-08T17:26:21.133Z,99128.41
2018-09-08T17:28:49.965Z,99119.02
2018-09-08T17:31:18.447Z,99121.08
2018-09-08T17:33:46.969Z,99115.53
2018-09-08T17:36:15.501Z,99124.16
2018-09-08T17:38:44.090Z,99130.30
2018-09-08T17:41:12.531Z,99134.72
2018-09-08T17:43:41.168Z,99131.70
2018-09-08T17:46:09.655Z,99132.57
2018-09-08T17:48:38.124Z,99137.98
2018-09-08T17:51:06.922Z,99141.53
2018-09-08T17:53:35.613Z,99142.88
2018-09-08T17:56:04.260Z,99141.20
2018-09-08T17:58:32.910Z,99147.11
2018-09-08T18:01:01.463Z,99143.55
2018-09-08T18:03:30.039Z,99149.30
2018-09-08T18:05:58.690Z,99145.27
2018-09-08T18:08:27.793Z,99147.94
2018-09-08T18:10:56.812Z,99147.78
2018-09-08T18:13:26.312Z,99142.06
2018-09-08T18:15:54.970Z,99142.09
2018-09-08T18:18:23.853Z,99142.26
2018-09-08T18:20:52.818Z,99152.89
2018-09-08T18:23:21.542Z,99157.77
2018-09-08T18:25:50.147Z,99154.74
2018-09-08T18:28:18.592Z,99155.58
2018-09-08T18:30:47.004Z,99157.07
2018-09-08T18:33:15.687Z,99157.07
2018-09-08T18:35:44.261Z,99150.00
2018-09-08T18:38:12.794Z,99148.66
2018-09-08T18:40:41.397Z,99141.75
2018-09-08T18:43:09.951Z,99152.22
2018-09-08T18:45:38.460Z,99159.09
2018-09-08T18:48:07.263Z,99153.04
2018-09-08T18:50:35.769Z,99154.39
2018-09-08T18:53:05.153Z,99167.33
2018-09-08T18:55:33.675Z,99167.16
2018-09-08T18:58:02.133Z,99173.66
2018-09-08T19:00:31.135Z,99178.94
2018-09-08T19:03:00.037Z,99173.69
2018-09-08T19:05:29.481Z,99171.88
2018-09-08T19:07:58.458Z,99179.58
2018-09-08T19:10:26.945Z,99178.03
2018-09-08T19:12:55.474Z,99179.54
2018-09-08T19:15:23.994Z,99184.25
2018-09-08T19:17:52.473Z,99181.56
2018-09-08T19:20:26.341Z,99186.67
2018-09-08T19:22:54.935Z,99185.31
2018-09-08T19:25:23.641Z,99188.23
2018-09-08T19:27:52.101Z,99177.64
2018-09-08T19:30:20.953Z,99167.75
2018-09-08T19:32:49.419Z,99163.05
2018-09-08T19:35:23.385Z,99164.80
2018-09-08T19:37:51.859Z,99162.95
2018-09-08T19:40:25.592Z,99165.06
2018-09-08T19:42:54.367Z,99183.53
2018-09-08T19:45:22.944Z,99193.28
2018-09-08T19:47:56.879Z,99192.79
2018-09-08T19:50:25.640Z,99200.52
2018-09-08T19:52:59.350Z,99187.69
2018-09-08T19:55:27.812Z,99192.91
2018-09-08T19:58:01.780Z,99179.14
2018-09-08T20:00:30.178Z,99182.85
2018-09-08T20:02:58.554Z,99177.98
2018-09-08T20:05:27.367Z,99190.21
2018-09-08T20:07:56.700Z,99182.11
2018-09-08T20:10:25.850Z,99197.88
2018-09-08T20:12:54.802Z,99196.02
2018-09-08T20:15:23.777Z,99196.19
2018-09-08T20:17:52.465Z,99196.50
2018-09-08T20:20:21.034Z,99190.77
2018-09-08T20:22:49.688Z,99192.15
2018-09-08T20:25:18.294Z,99198.53
2018-09-08T20:27:47.690Z,99215.98
2018-09-08T20:30:31.592Z,99205.58
2018-09-08T20:33:00.259Z,99200.20
2018-09-08T20:35:28.619Z,99186.92
2018-09-08T20:37:56.943Z,99194.14
2018-09-08T20:40:25.534Z,99193.41
2018-09-08T20:42:54.171Z,99187.34
2018-09-08T20:45:22.763Z,99193.10
2018-09-08T20:47:51.332Z,99184.03
2018-09-08T20:50:19.918Z,99191.17
2018-09-08T20:52:48.345Z,99188.55
2018-09-08T20:55:16.803Z,99196.28
2018-09-08T20:57:45.261Z,99204.48
2018-09-08T21:00:13.738Z,99199.38
2018-09-08T21:02:42.321Z,99195.67
2018-09-08T21:05:10.937Z,99187.80
2018-09-08T21:07:39.402Z,99182.45
2018-09-08T21:10:07.979Z,99189.67
2018-09-08T21:12:36.535Z,99189.33
2018-09-08T21:15:05.326Z,99193.86
2018-09-08T21:17:33.771Z,99194.27
2018-09-08T21:20:02.308Z,99194.20
2018-09-08T21:22:37.135Z,99196.08
2018-09-08T21:26:34.926Z,99194.58
2018-09-08T21:29:03.353Z,99215.57
2018-09-08T21:31:31.831Z,99210.38
2018-09-08T21:34:00.336Z,99210.35
2018-09-08T21:36:28.822Z,99213.11
2018-09-08T21:38:57.523Z,99214.83
2018-09-08T21:41:26.112Z,99217.41
2018-09-08T21:43:54.601Z,99213.12
2018-09-08T21:46:23.133Z,99213.25
2018-09-08T21:48:51.599Z,99210.04
2018-09-08T21:51:20.041Z,99211.88
2018-09-08T21:53:48.649Z,99216.45
2018-09-08T21:56:17.178Z,99221.29
2018-09-08T21:58:45.702Z,99220.73
2018-09-08T22:01:19.567Z,99225.61
2018-09-08T22:03:47.968Z,99221.67
2018-09-08T22:06:16.350Z,99207.11
2018-09-08T22:08:44.685Z,99208.05
2018-09-08T22:11:13.086Z,99213.73
2018-09-08T22:13:41.425Z,99205.55
2018-09-08T22:16:09.816Z,99198.42
2018-09-08T22:18:38.154Z,99206.67
2018-09-08T22:21:06.522Z,99201.98
2018-09-08T22:23:35.064Z,99202.48
2018-09-08T22:26:03.440Z,99201.23
2018-09-08T22:28:31.833Z,99189.19
2018-09-08T22:31:00.418Z,99179.34
2018-09-08T22:33:28.797Z,99183.72
2018-09-08T22:35:57.204Z,99190.00
2018-09-08T22:38:25.500Z,99188.74
2018-09-08T22:40:53.851Z,99187.74
2018-09-08T22:43:22.225Z,99205.27
2018-09-08T22:45:50.814Z,99201.94
2018-09-08T22:48:19.184Z,99202.29
2018-09-08T22:50:47.520Z,99190.77
2018-09-08T22:53:15.881Z,99185.06
2018-09-08T22:55:44.265Z,99172.94
2018-09-08T22:58:12.635Z,99182.27
2018-09-08T23:00:41.135Z,99198.11
2018-09-08T23:03:09.571Z,99203.80
2018-09-08T23:05:37.946Z,99208.52
2018-09-08T23:08:06.360Z,99208.63
2018-09-08T23:10:34.696Z,99201.25
2018-09-08T23:13:03.144Z,99197.97
2018-09-08T23:15:31.664Z,99206.36
2018-09-08T23:18:00.055Z,99207.70
2018-09-08T23:20:28.578Z,99210.05
2018-09-08T23:23:03.795Z,99216.06
2018-09-08T23:25:32.192Z,99212.70
2018-09-08T23:28:00.527Z,99217.56
2018-09-08T23:30:28.979Z,99225.31
2018-09-08T23:32:57.409Z,99224.23
2018-09-08T23:35:25.775Z,99229.20
2018-09-08T23:37:54.075Z,99236.66
2018-09-08T23:40:22.471Z,99237.39
2018-09-08T23:42:51.051Z,99235.77
2018-09-08T23:45:19.440Z,99240.53
2018-09-08T23:47:47.947Z,99237.31
2018-09-08T23:50:16.298Z,99240.53
2018-09-08T23:52:44.623Z,99233.21
2018-09-08T23:55:12.970Z,99228.00
2018-09-08T23:57:41.293Z,99220.09
